Terminal Aerodrome Forecast
Issued by NWS St Louis, MO

Home | Current Version | Previous Version | Text Only | Print | Product List | Glossary On
Versions: 1 2 3 4 5 6 7 8 9 10 11 12 13 14 15 16 17 18 19 20 21 22 23 24 25 26 27 28 29 30 31 32 33 34 35 36 37
000
FTUS43 KLSX 201729
TAFSTL
TAF
KSTL 201729Z 2018/2124 28004KT P6SM BKN090
     FM202100 22005KT P6SM BKN100
     FM202200 22004KT P6SM VCTS BKN100CB
     FM210900 VRB03KT P6SM BKN100
     FM211800 24004KT P6SM SCT100=

USA.gov is the U.S. government's official web portal to all federal, state and local government web resources and services.